Alto, Michigan
Current Conditions -  °F | °C
As of 3:09 PM on Monday 24 Nov 2014 (Local Time) from KGRR Reporting Station
Light Snow Light Snow  
Wind Chill: 21°   Ceiling: 1300
Heat Index: 34°   Visibility: 1.2mi
Dew Point: 34°   Wind: 29mph
Humidity: 100%   Direction: 230°SW
Pressure: 29.29"   Gusts: 43mph
Location:  42.86°N, 85.38°W
Report Text: KGRR 242009Z 23025G37KT 1 1/4SM R26L/6000VP6000FT -SN BR OVC013 01/01 A2929 RMK AO2 PK WND 23037/2001 RAE01 PRESRR 3/4V2 P0000 T00110011 $
Loading
Personal Weather Stations






























Interactive Weather Map New forecast layout! Learn more

10-Day Weather Forecast

Advertisements
Track Severe Weather on mobile